createdAt,value
2022-12-27T00:02:07.953Z,52.88
2022-12-27T00:04:35.621Z,45.33
2022-12-27T00:07:03.258Z,49.33
2022-12-27T00:09:30.613Z,44.03
2022-12-27T00:12:00.018Z,46.72
2022-12-27T00:14:27.814Z,39.10
2022-12-27T00:16:55.161Z,44.88
2022-12-27T00:19:22.840Z,46.95
2022-12-27T00:21:50.257Z,43.22
2022-12-27T00:24:17.588Z,40.00
2022-12-27T00:26:45.224Z,46.08
2022-12-27T00:29:12.601Z,46.47
2022-12-27T00:31:40.232Z,38.22
2022-12-27T00:34:08.216Z,40.53
2022-12-27T00:36:35.781Z,41.35
2022-12-27T00:39:03.418Z,40.97
2022-12-27T00:41:31.428Z,32.80
2022-12-27T00:43:58.850Z,26.90
2022-12-27T00:46:26.209Z,30.98
2022-12-27T00:48:55.281Z,22.20
2022-12-27T00:51:23.741Z,21.83
2022-12-27T00:53:51.676Z,17.50
2022-12-27T00:56:21.001Z,14.02
2022-12-27T00:58:48.359Z,16.95
2022-12-27T01:01:19.551Z,15.18
2022-12-27T01:03:48.274Z,12.60
2022-12-27T01:06:17.592Z,12.27
2022-12-27T01:08:45.363Z,11.25
2022-12-27T01:11:13.265Z,10.70
2022-12-27T01:13:40.649Z,10.32
2022-12-27T01:16:12.480Z,9.73
2022-12-27T01:18:40.151Z,10.68
2022-12-27T01:21:08.214Z,10.60
2022-12-27T01:23:35.949Z,8.88
2022-12-27T01:26:07.979Z,12.48
2022-12-27T01:28:35.557Z,10.30
2022-12-27T01:31:07.030Z,7.93
2022-12-27T01:33:34.712Z,7.60
2022-12-27T01:36:28.787Z,7.12
2022-12-27T01:38:58.093Z,8.85
2022-12-27T01:41:52.107Z,7.47
2022-12-27T01:44:38.481Z,6.50
2022-12-27T01:47:32.760Z,6.53
2022-12-27T01:50:15.182Z,7.15
2022-12-27T01:53:17.624Z,8.60
2022-12-27T01:56:04.698Z,7.78
2022-12-27T01:58:48.617Z,6.97
2022-12-27T02:01:18.208Z,7.85
2022-12-27T02:03:48.405Z,6.40
2022-12-27T02:06:16.047Z,8.65
2022-12-27T02:08:57.017Z,8.50
2022-12-27T02:11:51.334Z,9.20
2022-12-27T02:14:42.957Z,7.82
2022-12-27T02:17:16.134Z,7.43
2022-12-27T02:20:00.914Z,6.55
2022-12-27T02:23:05.581Z,9.18
2022-12-27T02:25:51.132Z,6.85
2022-12-27T02:28:46.314Z,8.13
2022-12-27T02:31:29.172Z,6.37
2022-12-27T02:33:56.850Z,5.50
2022-12-27T02:36:27.265Z,7.03
2022-12-27T02:38:56.704Z,5.85
2022-12-27T02:41:43.066Z,7.40
2022-12-27T02:44:30.427Z,5.45
2022-12-27T02:47:16.892Z,5.35
2022-12-27T02:50:02.934Z,5.12
2022-12-27T02:56:04.359Z,5.07
2022-12-27T02:58:53.882Z,4.12
2022-12-27T03:01:52.168Z,5.35
2022-12-27T03:04:38.722Z,7.07
2022-12-27T03:07:08.636Z,5.57
2022-12-27T03:10:13.650Z,4.87
2022-12-27T03:13:27.264Z,5.47
2022-12-27T03:16:21.266Z,5.03
2022-12-27T03:19:00.903Z,6.37
2022-12-27T03:21:52.774Z,5.18
2022-12-27T03:24:41.433Z,5.20
2022-12-27T03:27:17.959Z,5.97
2022-12-27T03:30:09.007Z,5.85
2022-12-27T03:32:57.978Z,5.00
2022-12-27T03:35:25.457Z,5.62
2022-12-27T03:38:02.477Z,5.37
2022-12-27T03:40:35.135Z,5.22
2022-12-27T03:43:13.624Z,6.87
2022-12-27T03:46:13.350Z,8.38
2022-12-27T03:49:10.324Z,5.22
2022-12-27T03:51:40.329Z,6.80
2022-12-27T03:54:15.416Z,5.47
2022-12-27T03:56:42.818Z,6.00
2022-12-27T03:59:10.616Z,5.85
2022-12-27T04:01:38.063Z,6.22
2022-12-27T04:04:06.199Z,6.10
2022-12-27T04:06:33.578Z,6.47
2022-12-27T04:09:19.738Z,7.05
2022-12-27T04:14:52.161Z,6.68
2022-12-27T04:17:38.513Z,5.93
2022-12-27T04:20:25.102Z,8.23
2022-12-27T04:23:11.706Z,6.53
2022-12-27T04:31:29.721Z,6.87
2022-12-27T04:36:42.967Z,6.07
2022-12-27T04:39:11.935Z,7.43
2022-12-27T04:41:58.861Z,6.75
2022-12-27T04:44:45.153Z,8.85
2022-12-27T04:47:32.193Z,8.20
2022-12-27T04:50:18.564Z,7.53
2022-12-27T04:53:04.514Z,10.20
2022-12-27T04:55:32.125Z,15.55
2022-12-27T04:57:59.532Z,10.23
2022-12-27T05:00:47.290Z,8.50
2022-12-27T05:03:19.407Z,7.80
2022-12-27T05:05:46.905Z,6.82
2022-12-27T05:08:32.798Z,8.07
2022-12-27T05:11:19.708Z,8.57
2022-12-27T05:14:02.285Z,7.97
2022-12-27T05:16:37.751Z,8.53
2022-12-27T05:19:06.147Z,8.35
2022-12-27T05:21:39.895Z,9.80
2022-12-27T05:24:26.131Z,9.18
2022-12-27T05:26:56.068Z,8.75
2022-12-27T05:29:23.387Z,9.45
2022-12-27T05:31:50.754Z,8.93
2022-12-27T05:34:18.383Z,8.40
2022-12-27T05:36:45.703Z,7.97
2022-12-27T05:39:13.088Z,13.07
2022-12-27T05:41:40.716Z,7.95
2022-12-27T05:44:08.056Z,7.70
2022-12-27T05:46:36.060Z,8.18
2022-12-27T05:49:03.701Z,7.78
2022-12-27T05:51:31.059Z,10.82
2022-12-27T05:53:58.401Z,9.05
2022-12-27T05:56:26.025Z,9.98
2022-12-27T05:58:53.553Z,10.02
2022-12-27T06:01:21.058Z,11.73
2022-12-27T06:03:48.705Z,11.23
2022-12-27T06:06:16.031Z,10.30
2022-12-27T06:08:43.398Z,8.27
2022-12-27T06:11:12.623Z,11.02
2022-12-27T06:13:40.363Z,15.45
2022-12-27T06:16:08.655Z,12.13
2022-12-27T06:18:37.038Z,10.93
2022-12-27T06:21:08.036Z,10.02
2022-12-27T06:23:37.047Z,7.57
2022-12-27T06:26:08.104Z,11.10
2022-12-27T06:28:36.025Z,9.20
2022-12-27T06:31:03.374Z,7.82
2022-12-27T06:33:30.805Z,9.48
2022-12-27T06:35:58.444Z,10.23
2022-12-27T06:38:25.894Z,8.77
2022-12-27T06:40:53.291Z,8.50
2022-12-27T06:43:20.906Z,9.85
2022-12-27T06:45:56.221Z,7.28
2022-12-27T06:48:24.118Z,7.60
2022-12-27T06:50:51.453Z,7.45
2022-12-27T06:53:18.856Z,9.20
2022-12-27T06:55:46.997Z,5.68
2022-12-27T06:58:14.973Z,5.12
2022-12-27T07:00:44.051Z,5.53
2022-12-27T07:03:11.685Z,5.47
2022-12-27T07:05:39.078Z,5.12
2022-12-27T07:08:06.568Z,12.32
2022-12-27T07:10:34.151Z,7.20
2022-12-27T07:13:01.764Z,6.62
2022-12-27T07:15:29.365Z,5.07
2022-12-27T07:17:57.004Z,5.12
2022-12-27T07:20:24.425Z,4.43
2022-12-27T07:22:51.815Z,4.45
2022-12-27T07:25:19.406Z,3.90
2022-12-27T07:27:46.762Z,4.07
2022-12-27T07:30:14.201Z,3.45
2022-12-27T07:32:41.845Z,3.42
2022-12-27T07:35:09.265Z,3.35
2022-12-27T07:37:37.409Z,2.53
2022-12-27T07:40:05.510Z,4.10
2022-12-27T07:42:32.778Z,2.05
2022-12-27T07:45:00.237Z,4.37
2022-12-27T07:47:28.299Z,5.37
2022-12-27T07:49:55.673Z,2.90
2022-12-27T07:52:23.002Z,2.75
2022-12-27T07:54:50.590Z,2.73
2022-12-27T07:57:17.954Z,3.05
2022-12-27T07:59:45.299Z,2.22
2022-12-27T08:02:13.783Z,2.80
2022-12-27T08:04:41.588Z,2.15
2022-12-27T08:07:13.552Z,4.80
2022-12-27T08:09:41.248Z,2.72
2022-12-27T08:12:08.674Z,2.83
2022-12-27T08:14:36.168Z,3.40
2022-12-27T08:17:22.687Z,3.47
2022-12-27T08:19:53.421Z,6.85
2022-12-27T08:22:21.828Z,3.45
2022-12-27T08:24:49.399Z,2.40
2022-12-27T08:27:23.282Z,2.53
2022-12-27T08:29:50.954Z,2.30
2022-12-27T08:32:18.316Z,3.77
2022-12-27T08:34:45.667Z,2.47
2022-12-27T08:37:13.815Z,3.13
2022-12-27T08:39:41.427Z,2.30
2022-12-27T08:42:11.746Z,1.48
2022-12-27T08:44:39.408Z,2.15
2022-12-27T08:47:07.047Z,1.70
2022-12-27T08:49:34.476Z,2.47
2022-12-27T08:52:02.131Z,2.97
2022-12-27T08:54:29.488Z,2.90
2022-12-27T08:56:56.822Z,2.53
2022-12-27T08:59:24.459Z,1.75
2022-12-27T09:01:51.813Z,1.85
2022-12-27T09:04:19.266Z,2.20
2022-12-27T09:06:46.848Z,2.27
2022-12-27T09:09:14.167Z,3.03
2022-12-27T09:11:41.585Z,2.65
2022-12-27T09:14:09.615Z,2.03
2022-12-27T09:16:37.045Z,2.22
2022-12-27T09:19:04.783Z,2.57
2022-12-27T09:21:33.980Z,2.90
2022-12-27T09:24:01.554Z,5.43
2022-12-27T09:26:29.871Z,2.60
2022-12-27T09:28:57.605Z,2.60
2022-12-27T09:31:25.137Z,3.17
2022-12-27T09:33:52.951Z,4.27
2022-12-27T09:36:25.008Z,4.25
2022-12-27T09:38:52.827Z,5.17
2022-12-27T09:45:00.949Z,5.53
2022-12-27T09:47:34.631Z,4.57
2022-12-27T09:50:26.011Z,5.27
2022-12-27T09:52:59.208Z,5.87
2022-12-27T09:55:43.044Z,5.70
2022-12-27T09:58:34.862Z,4.87
2022-12-27T10:01:02.587Z,5.27
2022-12-27T10:03:30.234Z,6.30
2022-12-27T10:06:38.070Z,5.97
2022-12-27T10:09:17.794Z,7.67
2022-12-27T10:12:23.405Z,6.47
2022-12-27T10:15:23.892Z,6.00
2022-12-27T10:18:03.361Z,5.70
2022-12-27T10:20:58.315Z,6.10
2022-12-27T10:23:28.386Z,5.63
2022-12-27T10:26:00.369Z,5.10
2022-12-27T10:28:39.417Z,5.57
2022-12-27T10:31:13.033Z,6.03
2022-12-27T10:33:40.559Z,4.97
2022-12-27T10:36:10.491Z,5.50
2022-12-27T10:38:37.900Z,5.23
2022-12-27T10:41:32.248Z,4.80
2022-12-27T10:44:00.101Z,4.20
2022-12-27T10:46:33.323Z,4.83
2022-12-27T10:49:22.443Z,3.82
2022-12-27T10:51:54.074Z,5.77
2022-12-27T10:54:26.501Z,4.70
2022-12-27T10:56:54.055Z,5.30
2022-12-27T10:59:22.588Z,4.20
2022-12-27T11:02:14.981Z,7.40
2022-12-27T11:04:56.900Z,4.60
2022-12-27T11:07:28.778Z,4.90
2022-12-27T11:10:07.883Z,4.60
2022-12-27T11:12:36.249Z,5.43
2022-12-27T11:15:10.043Z,5.10
2022-12-27T11:17:50.384Z,5.03
2022-12-27T11:20:25.641Z,5.57
2022-12-27T11:23:04.041Z,5.27
2022-12-27T11:25:31.677Z,5.07
2022-12-27T11:28:06.952Z,6.53
2022-12-27T11:30:36.686Z,6.77
2022-12-27T11:33:06.978Z,5.50
2022-12-27T11:35:37.378Z,4.50
2022-12-27T11:38:04.809Z,4.23
2022-12-27T11:40:34.739Z,5.10
2022-12-27T11:43:08.083Z,5.00
2022-12-27T11:45:44.619Z,5.57
2022-12-27T11:48:35.725Z,5.77
2022-12-27T11:51:41.061Z,6.10
2022-12-27T11:54:26.833Z,6.15
2022-12-27T11:57:00.763Z,5.05
2022-12-27T11:59:36.654Z,5.80
2022-12-27T12:02:26.668Z,5.57
2022-12-27T12:05:09.534Z,6.90
2022-12-27T12:07:36.986Z,5.87
2022-12-27T12:10:35.215Z,5.50
2022-12-27T12:13:12.005Z,5.63
2022-12-27T12:15:48.631Z,5.80
2022-12-27T12:18:43.093Z,6.37
2022-12-27T12:21:26.859Z,5.80
2022-12-27T12:24:14.863Z,6.47
2022-12-27T12:27:04.328Z,6.13
2022-12-27T12:30:10.324Z,9.67
2022-12-27T12:32:56.369Z,6.20
2022-12-27T12:35:38.788Z,7.68
2022-12-27T12:38:12.938Z,6.77
2022-12-27T12:41:03.420Z,6.57
2022-12-27T12:43:49.710Z,6.77
2022-12-27T12:46:25.957Z,6.30
2022-12-27T12:49:26.301Z,6.45
2022-12-27T12:52:19.663Z,6.70
2022-12-27T12:55:01.438Z,7.47
2022-12-27T12:57:40.889Z,8.17
2022-12-27T13:00:12.691Z,6.77
2022-12-27T13:03:17.153Z,9.20
2022-12-27T13:06:03.527Z,7.57
2022-12-27T13:09:03.574Z,8.15
2022-12-27T13:11:40.309Z,8.33
2022-12-27T13:14:25.172Z,7.03
2022-12-27T13:17:07.327Z,7.00
2022-12-27T13:19:55.837Z,6.57
2022-12-27T13:22:58.235Z,6.80
2022-12-27T13:25:44.094Z,7.87
2022-12-27T13:28:36.497Z,7.20
2022-12-27T13:31:30.365Z,9.90
2022-12-27T13:34:13.232Z,7.70
2022-12-27T13:37:10.926Z,7.67
2022-12-27T13:40:16.690Z,7.70
2022-12-27T13:43:21.446Z,6.93
2022-12-27T13:46:08.425Z,7.83
2022-12-27T13:48:56.670Z,8.47
2022-12-27T13:51:27.940Z,9.03
2022-12-27T13:54:16.754Z,10.10
2022-12-27T13:56:54.513Z,9.00
2022-12-27T13:59:36.925Z,8.97
2022-12-27T14:02:19.869Z,8.57
2022-12-27T14:05:04.575Z,8.40
2022-12-27T14:07:49.011Z,7.67
2022-12-27T14:10:26.675Z,7.37
2022-12-27T14:13:01.876Z,7.67
2022-12-27T14:15:43.461Z,8.20
2022-12-27T14:18:35.381Z,8.67
2022-12-27T14:21:09.667Z,8.13
2022-12-27T14:23:55.347Z,9.47
2022-12-27T14:26:48.303Z,8.85
2022-12-27T14:29:25.128Z,7.80
2022-12-27T14:32:25.159Z,9.00
2022-12-27T14:35:04.709Z,7.93
2022-12-27T14:37:53.393Z,7.90
2022-12-27T14:40:38.705Z,8.40
2022-12-27T14:43:31.597Z,8.23
2022-12-27T14:46:17.228Z,8.23
2022-12-27T14:49:22.403Z,7.95
2022-12-27T14:52:17.271Z,8.00
2022-12-27T14:55:32.758Z,8.80
2022-12-27T14:58:12.485Z,8.45
2022-12-27T15:01:11.183Z,8.83
2022-12-27T15:03:54.559Z,9.40
2022-12-27T15:06:38.126Z,9.33
2022-12-27T15:09:27.150Z,9.33
2022-12-27T15:12:05.854Z,10.50
2022-12-27T15:14:55.106Z,10.73
2022-12-27T15:17:28.385Z,10.00
2022-12-27T15:20:24.857Z,10.13
2022-12-27T15:22:55.433Z,12.23
2022-12-27T15:25:44.425Z,10.70
2022-12-27T15:28:18.189Z,11.33
2022-12-27T15:31:09.738Z,13.27
2022-12-27T15:34:08.486Z,11.20
2022-12-27T15:36:46.566Z,10.50
2022-12-27T15:39:50.101Z,11.03
2022-12-27T15:42:34.781Z,11.30
2022-12-27T15:45:50.712Z,8.30
2022-12-27T15:48:57.122Z,12.90
2022-12-27T15:51:48.112Z,10.63
2022-12-27T15:54:33.713Z,14.00
2022-12-27T15:57:32.769Z,14.40
2022-12-27T16:00:24.573Z,14.87
2022-12-27T16:02:59.654Z,12.70
2022-12-27T16:05:45.072Z,12.97
2022-12-27T16:08:27.112Z,11.68
2022-12-27T16:10:55.318Z,11.20
2022-12-27T16:13:39.463Z,13.73
2022-12-27T16:16:11.431Z,14.47
2022-12-27T16:18:51.534Z,13.37
2022-12-27T16:21:23.657Z,12.37
2022-12-27T16:23:56.118Z,12.57
2022-12-27T16:26:30.763Z,12.57
2022-12-27T16:29:00.252Z,11.17
2022-12-27T16:31:28.808Z,10.47
2022-12-27T16:33:56.897Z,8.93
2022-12-27T16:36:31.427Z,9.77
2022-12-27T16:39:11.473Z,11.00
2022-12-27T16:41:54.281Z,10.27
2022-12-27T16:44:24.415Z,12.00
2022-12-27T16:46:51.996Z,10.00
2022-12-27T16:49:57.112Z,9.90
2022-12-27T16:53:02.366Z,9.07
2022-12-27T16:56:00.643Z,6.90
2022-12-27T16:58:31.098Z,7.17
2022-12-27T17:00:59.476Z,8.63
2022-12-27T17:03:32.194Z,7.57
2022-12-27T17:09:08.029Z,7.00
2022-12-27T17:11:43.144Z,6.83
2022-12-27T17:14:18.647Z,9.10
2022-12-27T17:16:51.296Z,9.30
2022-12-27T17:19:29.340Z,8.80
2022-12-27T17:21:58.389Z,8.10
2022-12-27T17:24:25.778Z,9.23
2022-12-27T17:26:53.055Z,7.77
2022-12-27T17:29:29.759Z,7.23
2022-12-27T17:35:03.822Z,6.77
2022-12-27T17:37:40.329Z,11.13
2022-12-27T17:40:20.516Z,6.53
2022-12-27T17:43:24.889Z,7.60
2022-12-27T17:45:56.998Z,6.90
2022-12-27T17:48:29.187Z,6.70
2022-12-27T17:51:10.420Z,7.10
2022-12-27T17:54:06.941Z,7.07
2022-12-27T17:57:06.180Z,7.63
2022-12-27T17:59:37.643Z,8.20
2022-12-27T18:02:25.003Z,6.47
2022-12-27T18:04:54.048Z,9.13
2022-12-27T18:07:28.518Z,11.40
2022-12-27T18:09:57.947Z,16.37
2022-12-27T18:12:30.066Z,16.70
2022-12-27T18:15:02.644Z,18.73
2022-12-27T18:17:34.355Z,16.53
2022-12-27T18:20:26.266Z,29.73
2022-12-27T18:23:00.025Z,34.47
2022-12-27T18:25:34.568Z,32.17
2022-12-27T18:28:30.482Z,29.13
2022-12-27T18:31:08.572Z,28.47
2022-12-27T18:33:50.617Z,25.87
2022-12-27T18:36:23.001Z,22.20
2022-12-27T18:38:59.090Z,18.63
2022-12-27T18:41:26.763Z,15.90
2022-12-27T18:44:00.677Z,16.17
2022-12-27T18:46:33.752Z,9.03
2022-12-27T18:49:01.218Z,12.30
2022-12-27T18:51:33.170Z,9.03
2022-12-27T18:54:00.574Z,9.40
2022-12-27T18:56:32.745Z,13.03
2022-12-27T18:59:12.926Z,8.03
2022-12-27T19:01:41.796Z,8.13
2022-12-27T19:04:17.087Z,6.07
2022-12-27T19:06:51.742Z,8.43
2022-12-27T19:09:19.788Z,6.27
2022-12-27T19:12:01.224Z,7.23
2022-12-27T19:14:42.761Z,5.83
2022-12-27T19:17:17.481Z,6.77
2022-12-27T19:19:49.137Z,5.83
2022-12-27T19:22:36.453Z,7.27
2022-12-27T19:25:06.870Z,10.23
2022-12-27T19:27:34.240Z,7.27
2022-12-27T19:30:01.749Z,7.00
2022-12-27T19:32:32.219Z,7.17
2022-12-27T19:35:00.545Z,7.10
2022-12-27T19:37:28.524Z,7.27
2022-12-27T19:39:56.239Z,9.27
2022-12-27T19:42:31.355Z,9.43
2022-12-27T19:44:59.017Z,11.50
2022-12-27T19:47:27.204Z,11.13
2022-12-27T19:49:54.594Z,12.47
2022-12-27T19:52:24.899Z,9.57
2022-12-27T19:54:55.444Z,11.17
2022-12-27T19:57:23.307Z,10.50
2022-12-27T19:59:50.676Z,12.63
2022-12-27T20:02:18.552Z,12.20
2022-12-27T20:04:46.418Z,9.80
2022-12-27T20:07:20.175Z,8.70
2022-12-27T20:09:47.808Z,9.93
2022-12-27T20:12:16.988Z,11.50
2022-12-27T20:14:44.451Z,9.60
2022-12-27T20:17:12.136Z,9.00
2022-12-27T20:19:39.467Z,10.33
2022-12-27T20:22:06.883Z,12.07
2022-12-27T20:24:37.021Z,13.60
2022-12-27T20:27:04.737Z,13.63
2022-12-27T20:29:32.082Z,11.70
2022-12-27T20:31:59.917Z,9.60
2022-12-27T20:34:27.321Z,14.73
2022-12-27T20:36:55.481Z,8.53
2022-12-27T20:39:23.362Z,8.50
2022-12-27T20:41:50.748Z,7.10
2022-12-27T20:44:19.306Z,7.47
2022-12-27T20:46:47.647Z,10.23
2022-12-27T20:49:15.001Z,8.33
2022-12-27T20:51:42.338Z,7.80
2022-12-27T20:54:10.042Z,7.30
2022-12-27T20:56:37.420Z,9.00
2022-12-27T20:59:04.803Z,8.93
2022-12-27T21:01:32.512Z,7.80
2022-12-27T21:04:00.028Z,20.57
2022-12-27T21:06:28.223Z,22.00
2022-12-27T21:08:57.624Z,19.37
2022-12-27T21:11:33.171Z,15.80
2022-12-27T21:14:01.898Z,16.57
2022-12-27T21:16:30.466Z,19.67
2022-12-27T21:18:57.940Z,19.67
2022-12-27T21:21:28.399Z,25.57
2022-12-27T21:23:58.006Z,22.73
2022-12-27T21:26:27.522Z,19.63
2022-12-27T21:28:55.206Z,26.10
2022-12-27T21:31:22.681Z,15.80
2022-12-27T21:33:50.548Z,21.90
2022-12-27T21:36:25.009Z,19.90
2022-12-27T21:38:52.889Z,21.77
2022-12-27T21:41:24.985Z,18.50
2022-12-27T21:43:52.596Z,17.30
2022-12-27T21:46:27.002Z,19.97
2022-12-27T21:48:59.209Z,17.57
2022-12-27T21:51:27.050Z,17.27
2022-12-27T21:53:54.717Z,18.47
2022-12-27T21:56:22.113Z,18.63
2022-12-27T21:58:49.584Z,17.90
2022-12-27T22:01:24.109Z,13.30
2022-12-27T22:03:52.603Z,22.23
2022-12-27T22:06:30.417Z,19.73
2022-12-27T22:08:59.685Z,14.53
2022-12-27T22:11:27.231Z,16.00
2022-12-27T22:13:54.726Z,14.27
2022-12-27T22:16:27.165Z,15.37
2022-12-27T22:18:56.124Z,14.80
2022-12-27T22:21:26.119Z,17.77
2022-12-27T22:23:54.250Z,15.47
2022-12-27T22:26:23.726Z,18.20
2022-12-27T22:28:51.381Z,31.90
2022-12-27T22:31:26.068Z,21.03
2022-12-27T22:33:53.656Z,20.60
2022-12-27T22:36:22.135Z,21.93
2022-12-27T22:38:50.841Z,20.07
2022-12-27T22:41:20.832Z,23.63
2022-12-27T22:43:53.043Z,22.20
2022-12-27T22:46:20.739Z,23.43
2022-12-27T22:48:52.062Z,17.40
2022-12-27T22:51:21.823Z,16.10
2022-12-27T22:53:49.598Z,14.23
2022-12-27T22:56:20.972Z,13.03
2022-12-27T22:58:48.717Z,18.77
2022-12-27T23:01:20.946Z,22.27
2022-12-27T23:03:48.735Z,20.57
2022-12-27T23:06:16.113Z,20.33
2022-12-27T23:08:43.658Z,24.07
2022-12-27T23:11:16.168Z,16.83
2022-12-27T23:13:43.634Z,16.10
2022-12-27T23:16:11.307Z,13.67
2022-12-27T23:18:41.940Z,13.67
2022-12-27T23:21:20.868Z,14.93
2022-12-27T23:23:52.164Z,14.17
2022-12-27T23:26:21.402Z,12.47
2022-12-27T23:28:49.153Z,17.40
2022-12-27T23:31:16.913Z,16.33
2022-12-27T23:33:44.292Z,14.93
2022-12-27T23:36:12.059Z,14.73
2022-12-27T23:38:41.451Z,14.57
2022-12-27T23:41:08.966Z,11.60
2022-12-27T23:43:55.393Z,14.20
2022-12-27T23:46:25.125Z,9.93
2022-12-27T23:48:52.621Z,10.33
2022-12-27T23:51:20.167Z,8.43
2022-12-27T23:53:47.794Z,8.17
2022-12-27T23:56:17.152Z,12.50
2022-12-27T23:58:44.873Z,10.67
